sensor_id;sensor_type;location;lat;lon;timestamp;temperature;humidity
45491;DHT22;31237;45.586;13.782;2022-08-25T00:01:26;23.40;72.00
45491;DHT22;31237;45.586;13.782;2022-08-25T00:03:52;23.40;72.00
45491;DHT22;31237;45.586;13.782;2022-08-25T00:06:19;23.40;72.10
45491;DHT22;31237;45.586;13.782;2022-08-25T00:08:44;23.40;72.00
45491;DHT22;31237;45.586;13.782;2022-08-25T00:11:13;23.40;72.00
45491;DHT22;31237;45.586;13.782;2022-08-25T00:13:43;23.30;72.00
45491;DHT22;31237;45.586;13.782;2022-08-25T00:16:10;23.40;72.10
45491;DHT22;31237;45.586;13.782;2022-08-25T00:18:37;23.30;72.20
45491;DHT22;31237;45.586;13.782;2022-08-25T00:21:04;23.30;72.30
45491;DHT22;31237;45.586;13.782;2022-08-25T00:23:30;23.30;72.40
45491;DHT22;31237;45.586;13.782;2022-08-25T00:25:56;23.30;72.30
45491;DHT22;31237;45.586;13.782;2022-08-25T00:28:22;23.30;72.20
45491;DHT22;31237;45.586;13.782;2022-08-25T00:30:48;23.40;72.30
45491;DHT22;31237;45.586;13.782;2022-08-25T00:33:16;23.40;72.30
45491;DHT22;31237;45.586;13.782;2022-08-25T00:35:42;23.30;72.30
45491;DHT22;31237;45.586;13.782;2022-08-25T00:38:09;23.30;72.30
45491;DHT22;31237;45.586;13.782;2022-08-25T00:40:36;23.40;72.30
45491;DHT22;31237;45.586;13.782;2022-08-25T00:43:04;23.40;72.20
45491;DHT22;31237;45.586;13.782;2022-08-25T00:45:31;23.30;72.20
45491;DHT22;31237;45.586;13.782;2022-08-25T00:47:56;23.30;72.10
45491;DHT22;31237;45.586;13.782;2022-08-25T00:50:23;23.30;72.10
45491;DHT22;31237;45.586;13.782;2022-08-25T00:52:52;23.30;72.20
45491;DHT22;31237;45.586;13.782;2022-08-25T00:55:28;23.30;72.30
45491;DHT22;31237;45.586;13.782;2022-08-25T00:58:14;23.30;72.40
45491;DHT22;31237;45.586;13.782;2022-08-25T01:00:44;23.20;72.50
45491;DHT22;31237;45.586;13.782;2022-08-25T01:03:11;23.20;72.60
45491;DHT22;31237;45.586;13.782;2022-08-25T01:05:37;23.20;72.80
45491;DHT22;31237;45.586;13.782;2022-08-25T01:08:04;23.20;72.80
45491;DHT22;31237;45.586;13.782;2022-08-25T01:10:34;23.20;72.80
45491;DHT22;31237;45.586;13.782;2022-08-25T01:13:31;23.20;72.80
45491;DHT22;31237;45.586;13.782;2022-08-25T01:15:58;23.20;72.80
45491;DHT22;31237;45.586;13.782;2022-08-25T01:18:26;23.20;72.90
45491;DHT22;31237;45.586;13.782;2022-08-25T01:20:57;23.20;72.90
45491;DHT22;31237;45.586;13.782;2022-08-25T01:23:24;23.10;72.90
45491;DHT22;31237;45.586;13.782;2022-08-25T01:26:09;23.10;72.90
45491;DHT22;31237;45.586;13.782;2022-08-25T01:28:36;23.20;72.90
45491;DHT22;31237;45.586;13.782;2022-08-25T01:31:02;23.20;72.90
45491;DHT22;31237;45.586;13.782;2022-08-25T01:33:29;23.20;72.90
45491;DHT22;31237;45.586;13.782;2022-08-25T01:35:55;23.20;72.80
45491;DHT22;31237;45.586;13.782;2022-08-25T01:38:21;23.20;72.70
45491;DHT22;31237;45.586;13.782;2022-08-25T01:40:47;23.20;72.70
45491;DHT22;31237;45.586;13.782;2022-08-25T01:43:34;23.20;72.70
45491;DHT22;31237;45.586;13.782;2022-08-25T01:46:01;23.10;72.80
45491;DHT22;31237;45.586;13.782;2022-08-25T01:48:27;23.10;72.90
45491;DHT22;31237;45.586;13.782;2022-08-25T01:50:52;23.10;72.90
45491;DHT22;31237;45.586;13.782;2022-08-25T01:53:21;23.10;73.10
45491;DHT22;31237;45.586;13.782;2022-08-25T01:55:47;23.00;73.10
45491;DHT22;31237;45.586;13.782;2022-08-25T01:58:24;23.00;73.20
45491;DHT22;31237;45.586;13.782;2022-08-25T02:00:52;23.00;73.30
45491;DHT22;31237;45.586;13.782;2022-08-25T02:03:20;22.90;73.70
45491;DHT22;31237;45.586;13.782;2022-08-25T02:05:46;22.90;73.70
45491;DHT22;31237;45.586;13.782;2022-08-25T02:08:12;22.90;73.70
45491;DHT22;31237;45.586;13.782;2022-08-25T02:10:39;22.90;73.80
45491;DHT22;31237;45.586;13.782;2022-08-25T02:13:05;22.90;74.00
45491;DHT22;31237;45.586;13.782;2022-08-25T02:15:31;22.90;74.00
45491;DHT22;31237;45.586;13.782;2022-08-25T02:17:58;22.90;74.20
45491;DHT22;31237;45.586;13.782;2022-08-25T02:20:24;22.90;74.20
45491;DHT22;31237;45.586;13.782;2022-08-25T02:22:51;22.90;74.20
45491;DHT22;31237;45.586;13.782;2022-08-25T02:25:17;22.90;74.30
45491;DHT22;31237;45.586;13.782;2022-08-25T02:27:43;22.90;74.40
45491;DHT22;31237;45.586;13.782;2022-08-25T02:30:11;22.90;74.50
45491;DHT22;31237;45.586;13.782;2022-08-25T02:32:38;22.90;74.60
45491;DHT22;31237;45.586;13.782;2022-08-25T02:35:05;22.90;74.70
45491;DHT22;31237;45.586;13.782;2022-08-25T02:37:31;22.90;74.70
45491;DHT22;31237;45.586;13.782;2022-08-25T02:39:57;22.90;74.70
45491;DHT22;31237;45.586;13.782;2022-08-25T02:42:24;22.90;75.40
45491;DHT22;31237;45.586;13.782;2022-08-25T02:44:50;22.90;74.80
45491;DHT22;31237;45.586;13.782;2022-08-25T02:47:16;22.90;74.80
45491;DHT22;31237;45.586;13.782;2022-08-25T02:49:42;22.90;74.80
45491;DHT22;31237;45.586;13.782;2022-08-25T02:52:08;22.90;74.80
45491;DHT22;31237;45.586;13.782;2022-08-25T02:54:34;22.90;74.80
45491;DHT22;31237;45.586;13.782;2022-08-25T02:57:00;22.90;74.90
45491;DHT22;31237;45.586;13.782;2022-08-25T02:59:26;22.80;75.00
45491;DHT22;31237;45.586;13.782;2022-08-25T03:01:51;22.80;75.00
45491;DHT22;31237;45.586;13.782;2022-08-25T03:04:17;22.80;75.00
45491;DHT22;31237;45.586;13.782;2022-08-25T03:06:44;22.90;75.10
45491;DHT22;31237;45.586;13.782;2022-08-25T03:09:10;22.80;75.60
45491;DHT22;31237;45.586;13.782;2022-08-25T03:11:36;22.90;75.00
45491;DHT22;31237;45.586;13.782;2022-08-25T03:14:04;22.80;74.90
45491;DHT22;31237;45.586;13.782;2022-08-25T03:16:29;22.80;74.90
45491;DHT22;31237;45.586;13.782;2022-08-25T03:18:56;22.80;74.90
45491;DHT22;31237;45.586;13.782;2022-08-25T03:21:22;22.80;75.00
45491;DHT22;31237;45.586;13.782;2022-08-25T03:23:47;22.80;74.90
45491;DHT22;31237;45.586;13.782;2022-08-25T03:26:13;22.80;74.90
45491;DHT22;31237;45.586;13.782;2022-08-25T03:28:58;22.80;74.90
45491;DHT22;31237;45.586;13.782;2022-08-25T03:31:25;22.80;75.00
45491;DHT22;31237;45.586;13.782;2022-08-25T03:33:52;22.80;75.00
45491;DHT22;31237;45.586;13.782;2022-08-25T03:36:18;22.70;75.10
45491;DHT22;31237;45.586;13.782;2022-08-25T03:38:44;22.70;75.70
45491;DHT22;31237;45.586;13.782;2022-08-25T03:41:23;22.70;75.20
45491;DHT22;31237;45.586;13.782;2022-08-25T03:43:49;22.70;75.20
45491;DHT22;31237;45.586;13.782;2022-08-25T03:46:20;22.70;75.30
45491;DHT22;31237;45.586;13.782;2022-08-25T03:48:47;22.60;75.40
45491;DHT22;31237;45.586;13.782;2022-08-25T03:53:46;22.60;75.60
45491;DHT22;31237;45.586;13.782;2022-08-25T03:56:11;22.60;76.00
45491;DHT22;31237;45.586;13.782;2022-08-25T03:58:37;22.60;75.80
45491;DHT22;31237;45.586;13.782;2022-08-25T04:01:03;22.60;75.80
45491;DHT22;31237;45.586;13.782;2022-08-25T04:03:28;22.60;75.90
45491;DHT22;31237;45.586;13.782;2022-08-25T04:05:54;22.60;76.00
45491;DHT22;31237;45.586;13.782;2022-08-25T04:08:20;22.60;75.90
45491;DHT22;31237;45.586;13.782;2022-08-25T04:10:46;22.60;75.80
45491;DHT22;31237;45.586;13.782;2022-08-25T04:13:13;22.60;75.80
45491;DHT22;31237;45.586;13.782;2022-08-25T04:15:41;22.60;75.80
45491;DHT22;31237;45.586;13.782;2022-08-25T04:18:08;22.50;75.80
45491;DHT22;31237;45.586;13.782;2022-08-25T04:20:36;22.50;76.00
45491;DHT22;31237;45.586;13.782;2022-08-25T04:23:02;22.50;76.10
45491;DHT22;31237;45.586;13.782;2022-08-25T04:25:28;22.40;76.20
45491;DHT22;31237;45.586;13.782;2022-08-25T04:27:54;22.40;76.20
45491;DHT22;31237;45.586;13.782;2022-08-25T04:30:20;22.40;76.40
45491;DHT22;31237;45.586;13.782;2022-08-25T04:32:47;22.30;76.50
45491;DHT22;31237;45.586;13.782;2022-08-25T04:35:14;22.40;76.70
45491;DHT22;31237;45.586;13.782;2022-08-25T04:37:40;22.30;76.70
45491;DHT22;31237;45.586;13.782;2022-08-25T04:40:06;22.30;77.40
45491;DHT22;31237;45.586;13.782;2022-08-25T04:42:32;22.30;76.80
45491;DHT22;31237;45.586;13.782;2022-08-25T04:44:58;22.30;76.90
45491;DHT22;31237;45.586;13.782;2022-08-25T04:47:26;22.40;77.10
45491;DHT22;31237;45.586;13.782;2022-08-25T04:49:52;22.30;77.10
45491;DHT22;31237;45.586;13.782;2022-08-25T04:52:18;22.40;77.20
45491;DHT22;31237;45.586;13.782;2022-08-25T04:54:45;22.40;77.20
45491;DHT22;31237;45.586;13.782;2022-08-25T04:57:12;22.40;77.10
45491;DHT22;31237;45.586;13.782;2022-08-25T04:59:37;22.40;77.20
45491;DHT22;31237;45.586;13.782;2022-08-25T05:02:04;22.50;77.30
45491;DHT22;31237;45.586;13.782;2022-08-25T05:04:33;22.50;77.30
45491;DHT22;31237;45.586;13.782;2022-08-25T05:06:59;22.50;77.30
45491;DHT22;31237;45.586;13.782;2022-08-25T05:09:25;22.50;77.20
45491;DHT22;31237;45.586;13.782;2022-08-25T05:11:51;22.50;77.20
45491;DHT22;31237;45.586;13.782;2022-08-25T05:14:17;22.60;77.30
45491;DHT22;31237;45.586;13.782;2022-08-25T05:16:46;22.60;77.20
45491;DHT22;31237;45.586;13.782;2022-08-25T05:19:13;22.60;77.20
45491;DHT22;31237;45.586;13.782;2022-08-25T05:21:38;22.70;77.20
45491;DHT22;31237;45.586;13.782;2022-08-25T05:24:04;22.70;77.10
45491;DHT22;31237;45.586;13.782;2022-08-25T05:26:32;22.70;77.00
45491;DHT22;31237;45.586;13.782;2022-08-25T05:29:00;22.70;77.00
45491;DHT22;31237;45.586;13.782;2022-08-25T05:31:30;22.80;77.00
45491;DHT22;31237;45.586;13.782;2022-08-25T05:33:56;22.80;76.90
45491;DHT22;31237;45.586;13.782;2022-08-25T05:36:24;22.90;76.90
45491;DHT22;31237;45.586;13.782;2022-08-25T05:38:51;23.00;76.90
45491;DHT22;31237;45.586;13.782;2022-08-25T05:41:19;23.00;76.80
45491;DHT22;31237;45.586;13.782;2022-08-25T05:43:47;23.00;76.70
45491;DHT22;31237;45.586;13.782;2022-08-25T05:46:14;23.10;76.60
45491;DHT22;31237;45.586;13.782;2022-08-25T05:48:41;23.20;76.40
45491;DHT22;31237;45.586;13.782;2022-08-25T05:51:08;23.20;76.30
45491;DHT22;31237;45.586;13.782;2022-08-25T05:53:36;23.30;76.20
45491;DHT22;31237;45.586;13.782;2022-08-25T05:56:02;23.30;76.10
45491;DHT22;31237;45.586;13.782;2022-08-25T05:58:29;23.40;75.80
45491;DHT22;31237;45.586;13.782;2022-08-25T06:00:57;23.40;75.60
45491;DHT22;31237;45.586;13.782;2022-08-25T06:03:43;23.50;75.40
45491;DHT22;31237;45.586;13.782;2022-08-25T06:06:09;23.60;75.30
45491;DHT22;31237;45.586;13.782;2022-08-25T06:08:35;23.70;75.20
45491;DHT22;31237;45.586;13.782;2022-08-25T06:11:01;23.80;75.10
45491;DHT22;31237;45.586;13.782;2022-08-25T06:13:26;23.90;74.70
45491;DHT22;31237;45.586;13.782;2022-08-25T06:15:57;23.90;74.60
45491;DHT22;31237;45.586;13.782;2022-08-25T06:18:23;24.00;74.30
45491;DHT22;31237;45.586;13.782;2022-08-25T06:20:48;24.10;74.20
45491;DHT22;31237;45.586;13.782;2022-08-25T06:23:15;24.20;73.90
45491;DHT22;31237;45.586;13.782;2022-08-25T06:25:48;24.30;73.70
45491;DHT22;31237;45.586;13.782;2022-08-25T06:28:14;24.40;73.30
45491;DHT22;31237;45.586;13.782;2022-08-25T06:30:40;24.50;73.00
45491;DHT22;31237;45.586;13.782;2022-08-25T06:33:06;24.60;72.70
45491;DHT22;31237;45.586;13.782;2022-08-25T06:35:32;24.70;72.30
45491;DHT22;31237;45.586;13.782;2022-08-25T06:37:58;24.70;71.90
45491;DHT22;31237;45.586;13.782;2022-08-25T06:40:23;24.80;71.70
45491;DHT22;31237;45.586;13.782;2022-08-25T06:42:50;24.80;71.40
45491;DHT22;31237;45.586;13.782;2022-08-25T06:45:16;24.90;70.90
45491;DHT22;31237;45.586;13.782;2022-08-25T06:47:42;24.90;70.70
45491;DHT22;31237;45.586;13.782;2022-08-25T06:50:08;25.00;70.50
45491;DHT22;31237;45.586;13.782;2022-08-25T06:52:34;25.00;70.30
45491;DHT22;31237;45.586;13.782;2022-08-25T06:55:01;25.10;70.30
45491;DHT22;31237;45.586;13.782;2022-08-25T06:57:26;25.10;70.10
45491;DHT22;31237;45.586;13.782;2022-08-25T06:59:52;25.20;70.10
45491;DHT22;31237;45.586;13.782;2022-08-25T07:02:18;25.20;69.70
45491;DHT22;31237;45.586;13.782;2022-08-25T07:04:45;25.30;69.50
45491;DHT22;31237;45.586;13.782;2022-08-25T07:07:10;25.40;69.60
45491;DHT22;31237;45.586;13.782;2022-08-25T07:09:36;25.40;69.40
45491;DHT22;31237;45.586;13.782;2022-08-25T07:12:02;25.50;69.20
45491;DHT22;31237;45.586;13.782;2022-08-25T07:14:30;25.60;68.90
45491;DHT22;31237;45.586;13.782;2022-08-25T07:16:56;25.70;68.70
45491;DHT22;31237;45.586;13.782;2022-08-25T07:19:22;25.80;68.10
45491;DHT22;31237;45.586;13.782;2022-08-25T07:21:50;25.90;67.50
45491;DHT22;31237;45.586;13.782;2022-08-25T07:24:17;26.00;67.20
45491;DHT22;31237;45.586;13.782;2022-08-25T07:26:43;26.00;66.70
45491;DHT22;31237;45.586;13.782;2022-08-25T07:29:20;26.10;66.10
45491;DHT22;31237;45.586;13.782;2022-08-25T07:31:46;26.20;66.00
45491;DHT22;31237;45.586;13.782;2022-08-25T07:34:12;26.20;65.40
45491;DHT22;31237;45.586;13.782;2022-08-25T07:36:57;26.30;65.10
45491;DHT22;31237;45.586;13.782;2022-08-25T07:39:23;26.50;65.60
45491;DHT22;31237;45.586;13.782;2022-08-25T07:41:50;26.50;64.90
45491;DHT22;31237;45.586;13.782;2022-08-25T07:44:16;26.60;64.90
45491;DHT22;31237;45.586;13.782;2022-08-25T07:46:42;26.70;64.30
45491;DHT22;31237;45.586;13.782;2022-08-25T07:49:08;26.80;64.00
45491;DHT22;31237;45.586;13.782;2022-08-25T07:51:34;26.90;63.10
45491;DHT22;31237;45.586;13.782;2022-08-25T07:54:00;27.00;63.00
45491;DHT22;31237;45.586;13.782;2022-08-25T07:56:26;27.00;63.10
45491;DHT22;31237;45.586;13.782;2022-08-25T07:58:52;27.10;63.90
45491;DHT22;31237;45.586;13.782;2022-08-25T08:01:20;27.20;63.10
45491;DHT22;31237;45.586;13.782;2022-08-25T08:03:47;27.30;63.10
45491;DHT22;31237;45.586;13.782;2022-08-25T08:06:15;27.40;62.60
45491;DHT22;31237;45.586;13.782;2022-08-25T08:08:43;27.50;61.80
45491;DHT22;31237;45.586;13.782;2022-08-25T08:13:46;27.60;61.50
45491;DHT22;31237;45.586;13.782;2022-08-25T08:16:14;27.70;61.30
45491;DHT22;31237;45.586;13.782;2022-08-25T08:18:41;27.80;61.10
45491;DHT22;31237;45.586;13.782;2022-08-25T08:21:16;27.90;61.00
45491;DHT22;31237;45.586;13.782;2022-08-25T08:23:43;28.00;60.70
45491;DHT22;31237;45.586;13.782;2022-08-25T08:26:09;28.10;60.20
45491;DHT22;31237;45.586;13.782;2022-08-25T08:28:35;28.20;60.00
45491;DHT22;31237;45.586;13.782;2022-08-25T08:31:01;28.30;59.60
45491;DHT22;31237;45.586;13.782;2022-08-25T08:33:27;28.40;58.80
45491;DHT22;31237;45.586;13.782;2022-08-25T08:36:02;28.40;58.40
45491;DHT22;31237;45.586;13.782;2022-08-25T08:38:28;28.50;58.30
45491;DHT22;31237;45.586;13.782;2022-08-25T08:52:14;28.90;58.30
45491;DHT22;31237;45.586;13.782;2022-08-25T08:54:42;29.00;57.40
45491;DHT22;31237;45.586;13.782;2022-08-25T08:57:23;29.00;57.20
45491;DHT22;31237;45.586;13.782;2022-08-25T08:59:59;29.10;57.30
45491;DHT22;31237;45.586;13.782;2022-08-25T09:02:37;29.10;56.40
45491;DHT22;31237;45.586;13.782;2022-08-25T09:05:10;29.10;56.40
45491;DHT22;31237;45.586;13.782;2022-08-25T09:08:13;29.10;56.70
45491;DHT22;31237;45.586;13.782;2022-08-25T09:19:46;29.30;55.90
45491;DHT22;31237;45.586;13.782;2022-08-25T09:22:44;29.30;55.60
45491;DHT22;31237;45.586;13.782;2022-08-25T09:28:09;29.40;55.00
45491;DHT22;31237;45.586;13.782;2022-08-25T09:31:04;29.50;55.00
45491;DHT22;31237;45.586;13.782;2022-08-25T09:33:34;29.50;54.80
45491;DHT22;31237;45.586;13.782;2022-08-25T09:36:00;29.50;55.10
45491;DHT22;31237;45.586;13.782;2022-08-25T09:38:27;29.50;54.50
45491;DHT22;31237;45.586;13.782;2022-08-25T09:40:58;29.60;54.50
45491;DHT22;31237;45.586;13.782;2022-08-25T09:48:50;29.60;54.20
45491;DHT22;31237;45.586;13.782;2022-08-25T09:53:59;29.70;54.30
45491;DHT22;31237;45.586;13.782;2022-08-25T09:56:30;29.80;53.90
45491;DHT22;31237;45.586;13.782;2022-08-25T10:01:50;29.90;53.50
45491;DHT22;31237;45.586;13.782;2022-08-25T10:04:43;30.00;53.80
45491;DHT22;31237;45.586;13.782;2022-08-25T10:07:28;30.00;53.60
45491;DHT22;31237;45.586;13.782;2022-08-25T10:09:59;30.10;53.50
45491;DHT22;31237;45.586;13.782;2022-08-25T10:12:31;30.20;53.30
45491;DHT22;31237;45.586;13.782;2022-08-25T10:15:17;30.20;53.20
45491;DHT22;31237;45.586;13.782;2022-08-25T10:17:44;30.30;53.30
45491;DHT22;31237;45.586;13.782;2022-08-25T10:22:37;30.40;53.00
45491;DHT22;31237;45.586;13.782;2022-08-25T10:25:04;30.40;52.90
45491;DHT22;31237;45.586;13.782;2022-08-25T10:30:38;30.30;52.30
45491;DHT22;31237;45.586;13.782;2022-08-25T10:35:58;30.10;52.90
45491;DHT22;31237;45.586;13.782;2022-08-25T10:38:35;30.10;53.30
45491;DHT22;31237;45.586;13.782;2022-08-25T10:49:24;30.30;53.10
45491;DHT22;31237;45.586;13.782;2022-08-25T10:52:52;30.30;53.30
45491;DHT22;31237;45.586;13.782;2022-08-25T11:00:58;30.60;52.60
45491;DHT22;31237;45.586;13.782;2022-08-25T11:03:58;30.60;52.10
45491;DHT22;31237;45.586;13.782;2022-08-25T11:06:42;30.60;51.50
45491;DHT22;31237;45.586;13.782;2022-08-25T11:09:15;30.70;51.40
45491;DHT22;31237;45.586;13.782;2022-08-25T11:14:28;30.70;51.20
45491;DHT22;31237;45.586;13.782;2022-08-25T11:17:04;30.80;50.70
45491;DHT22;31237;45.586;13.782;2022-08-25T11:19:40;30.80;50.40
45491;DHT22;31237;45.586;13.782;2022-08-25T11:27:50;30.90;49.70
45491;DHT22;31237;45.586;13.782;2022-08-25T11:30:19;30.80;49.40
45491;DHT22;31237;45.586;13.782;2022-08-25T11:32:50;30.80;50.50
45491;DHT22;31237;45.586;13.782;2022-08-25T11:35:28;30.90;49.70
45491;DHT22;31237;45.586;13.782;2022-08-25T11:38:03;30.90;49.90
45491;DHT22;31237;45.586;13.782;2022-08-25T11:51:48;31.10;48.10
45491;DHT22;31237;45.586;13.782;2022-08-25T11:54:33;31.00;48.20
45491;DHT22;31237;45.586;13.782;2022-08-25T11:57:07;31.00;48.70
45491;DHT22;31237;45.586;13.782;2022-08-25T12:13:44;31.10;48.50
45491;DHT22;31237;45.586;13.782;2022-08-25T12:21:52;31.10;47.10
45491;DHT22;31237;45.586;13.782;2022-08-25T12:33:08;31.30;48.10
45491;DHT22;31237;45.586;13.782;2022-08-25T12:35:49;31.30;47.50
45491;DHT22;31237;45.586;13.782;2022-08-25T12:41:00;31.30;47.10
45491;DHT22;31237;45.586;13.782;2022-08-25T12:43:31;31.30;47.00
45491;DHT22;31237;45.586;13.782;2022-08-25T12:54:35;31.30;46.40
45491;DHT22;31237;45.586;13.782;2022-08-25T13:05:54;31.20;46.20
45491;DHT22;31237;45.586;13.782;2022-08-25T13:08:39;31.10;46.30
45491;DHT22;31237;45.586;13.782;2022-08-25T13:11:23;31.10;46.80
45491;DHT22;31237;45.586;13.782;2022-08-25T13:14:00;31.10;46.90
45491;DHT22;31237;45.586;13.782;2022-08-25T13:16:29;31.10;47.00
45491;DHT22;31237;45.586;13.782;2022-08-25T13:18:56;31.10;46.50
45491;DHT22;31237;45.586;13.782;2022-08-25T13:21:39;31.10;46.70
45491;DHT22;31237;45.586;13.782;2022-08-25T13:24:10;31.10;46.70
45491;DHT22;31237;45.586;13.782;2022-08-25T13:26:41;31.10;46.80
45491;DHT22;31237;45.586;13.782;2022-08-25T13:31:36;31.00;47.50
45491;DHT22;31237;45.586;13.782;2022-08-25T13:34:14;31.00;47.80
45491;DHT22;31237;45.586;13.782;2022-08-25T13:36:46;31.00;47.30
45491;DHT22;31237;45.586;13.782;2022-08-25T13:39:31;31.00;47.40
45491;DHT22;31237;45.586;13.782;2022-08-25T13:41:59;31.00;47.20
45491;DHT22;31237;45.586;13.782;2022-08-25T13:44:27;31.00;47.10
45491;DHT22;31237;45.586;13.782;2022-08-25T13:47:10;31.00;47.30
45491;DHT22;31237;45.586;13.782;2022-08-25T13:49:38;30.90;46.60
45491;DHT22;31237;45.586;13.782;2022-08-25T13:52:04;30.90;46.80
45491;DHT22;31237;45.586;13.782;2022-08-25T13:54:40;30.90;47.00
45491;DHT22;31237;45.586;13.782;2022-08-25T13:57:11;30.90;47.00
45491;DHT22;31237;45.586;13.782;2022-08-25T13:59:40;30.90;47.30
45491;DHT22;31237;45.586;13.782;2022-08-25T14:02:08;30.90;47.30
45491;DHT22;31237;45.586;13.782;2022-08-25T14:09:51;31.00;47.20
45491;DHT22;31237;45.586;13.782;2022-08-25T14:12:44;31.00;47.20
45491;DHT22;31237;45.586;13.782;2022-08-25T14:17:47;31.00;46.70
45491;DHT22;31237;45.586;13.782;2022-08-25T14:20:23;31.00;46.80
45491;DHT22;31237;45.586;13.782;2022-08-25T14:22:58;31.00;46.90
45491;DHT22;31237;45.586;13.782;2022-08-25T14:25:28;31.00;47.20
45491;DHT22;31237;45.586;13.782;2022-08-25T14:28:00;31.00;46.50
45491;DHT22;31237;45.586;13.782;2022-08-25T14:30:28;31.00;46.80
45491;DHT22;31237;45.586;13.782;2022-08-25T14:32:55;30.90;46.70
45491;DHT22;31237;45.586;13.782;2022-08-25T14:35:20;30.90;46.60
45491;DHT22;31237;45.586;13.782;2022-08-25T14:37:46;30.90;47.00
45491;DHT22;31237;45.586;13.782;2022-08-25T14:40:13;30.80;47.20
45491;DHT22;31237;45.586;13.782;2022-08-25T14:42:41;30.80;47.00
45491;DHT22;31237;45.586;13.782;2022-08-25T14:45:07;30.80;47.10
45491;DHT22;31237;45.586;13.782;2022-08-25T14:47:33;30.80;47.20
45491;DHT22;31237;45.586;13.782;2022-08-25T14:50:00;30.80;47.50
45491;DHT22;31237;45.586;13.782;2022-08-25T14:52:27;30.80;47.30
45491;DHT22;31237;45.586;13.782;2022-08-25T14:54:55;30.70;47.50
45491;DHT22;31237;45.586;13.782;2022-08-25T14:57:22;30.70;47.60
45491;DHT22;31237;45.586;13.782;2022-08-25T14:59:48;30.70;48.20
45491;DHT22;31237;45.586;13.782;2022-08-25T15:02:15;30.70;47.30
45491;DHT22;31237;45.586;13.782;2022-08-25T15:04:54;30.70;46.80
45491;DHT22;31237;45.586;13.782;2022-08-25T15:07:21;30.70;46.40
45491;DHT22;31237;45.586;13.782;2022-08-25T15:10:06;30.70;46.40
45491;DHT22;31237;45.586;13.782;2022-08-25T15:12:32;30.70;46.60
45491;DHT22;31237;45.586;13.782;2022-08-25T15:14:59;30.70;46.80
45491;DHT22;31237;45.586;13.782;2022-08-25T15:17:27;30.70;46.90
45491;DHT22;31237;45.586;13.782;2022-08-25T15:19:52;30.70;47.00
45491;DHT22;31237;45.586;13.782;2022-08-25T15:22:18;30.70;47.00
45491;DHT22;31237;45.586;13.782;2022-08-25T15:24:44;30.70;47.20
45491;DHT22;31237;45.586;13.782;2022-08-25T15:27:11;30.80;47.30
45491;DHT22;31237;45.586;13.782;2022-08-25T15:29:40;30.70;47.70
45491;DHT22;31237;45.586;13.782;2022-08-25T15:32:07;30.80;48.40
45491;DHT22;31237;45.586;13.782;2022-08-25T15:34:33;30.70;49.00
45491;DHT22;31237;45.586;13.782;2022-08-25T15:37:09;30.70;49.60
45491;DHT22;31237;45.586;13.782;2022-08-25T15:39:36;30.70;50.00
45491;DHT22;31237;45.586;13.782;2022-08-25T15:42:02;30.70;50.40
45491;DHT22;31237;45.586;13.782;2022-08-25T15:44:28;30.70;50.90
45491;DHT22;31237;45.586;13.782;2022-08-25T15:46:56;30.70;51.40
45491;DHT22;31237;45.586;13.782;2022-08-25T15:49:24;30.70;51.80
45491;DHT22;31237;45.586;13.782;2022-08-25T15:51:53;30.70;52.20
45491;DHT22;31237;45.586;13.782;2022-08-25T15:54:23;30.70;52.50
45491;DHT22;31237;45.586;13.782;2022-08-25T15:56:50;30.70;52.70
45491;DHT22;31237;45.586;13.782;2022-08-25T15:59:16;30.70;53.10
45491;DHT22;31237;45.586;13.782;2022-08-25T16:01:42;30.60;53.30
45491;DHT22;31237;45.586;13.782;2022-08-25T16:04:09;30.60;53.50
45491;DHT22;31237;45.586;13.782;2022-08-25T16:06:35;30.50;53.70
45491;DHT22;31237;45.586;13.782;2022-08-25T16:09:02;30.40;53.90
45491;DHT22;31237;45.586;13.782;2022-08-25T16:11:29;30.40;54.00
45491;DHT22;31237;45.586;13.782;2022-08-25T16:13:55;30.30;53.90
45491;DHT22;31237;45.586;13.782;2022-08-25T16:16:23;30.30;54.00
45491;DHT22;31237;45.586;13.782;2022-08-25T16:18:50;30.30;54.10
45491;DHT22;31237;45.586;13.782;2022-08-25T16:21:22;30.30;54.10
45491;DHT22;31237;45.586;13.782;2022-08-25T16:23:59;30.30;54.20
45491;DHT22;31237;45.586;13.782;2022-08-25T16:26:26;30.30;54.40
45491;DHT22;31237;45.586;13.782;2022-08-25T16:28:52;30.20;54.60
45491;DHT22;31237;45.586;13.782;2022-08-25T16:31:19;30.20;55.00
45491;DHT22;31237;45.586;13.782;2022-08-25T16:33:45;30.10;55.20
45491;DHT22;31237;45.586;13.782;2022-08-25T16:36:14;30.00;55.40
45491;DHT22;31237;45.586;13.782;2022-08-25T16:38:41;30.00;55.60
45491;DHT22;31237;45.586;13.782;2022-08-25T16:41:08;29.90;55.80
45491;DHT22;31237;45.586;13.782;2022-08-25T16:43:34;29.90;56.00
45491;DHT22;31237;45.586;13.782;2022-08-25T16:46:02;29.90;55.90
45491;DHT22;31237;45.586;13.782;2022-08-25T16:48:29;29.90;55.70
45491;DHT22;31237;45.586;13.782;2022-08-25T16:50:55;29.90;55.70
45491;DHT22;31237;45.586;13.782;2022-08-25T16:53:21;29.90;55.70
45491;DHT22;31237;45.586;13.782;2022-08-25T16:56:06;29.90;55.70
45491;DHT22;31237;45.586;13.782;2022-08-25T16:58:32;29.80;55.80
45491;DHT22;31237;45.586;13.782;2022-08-25T17:01:10;29.80;56.00
45491;DHT22;31237;45.586;13.782;2022-08-25T17:03:39;29.70;56.20
45491;DHT22;31237;45.586;13.782;2022-08-25T17:06:07;29.60;56.50
45491;DHT22;31237;45.586;13.782;2022-08-25T17:08:33;29.50;56.70
45491;DHT22;31237;45.586;13.782;2022-08-25T17:11:09;29.40;56.90
45491;DHT22;31237;45.586;13.782;2022-08-25T17:13:37;29.30;57.20
45491;DHT22;31237;45.586;13.782;2022-08-25T17:16:03;29.30;57.60
45491;DHT22;31237;45.586;13.782;2022-08-25T17:18:29;29.20;58.00
45491;DHT22;31237;45.586;13.782;2022-08-25T17:21:03;29.10;58.30
45491;DHT22;31237;45.586;13.782;2022-08-25T17:23:29;29.00;58.60
45491;DHT22;31237;45.586;13.782;2022-08-25T17:25:55;28.90;58.90
45491;DHT22;31237;45.586;13.782;2022-08-25T17:28:21;28.80;59.20
45491;DHT22;31237;45.586;13.782;2022-08-25T17:30:47;28.70;59.40
45491;DHT22;31237;45.586;13.782;2022-08-25T17:33:13;28.60;59.60
45491;DHT22;31237;45.586;13.782;2022-08-25T17:35:45;28.50;59.80
45491;DHT22;31237;45.586;13.782;2022-08-25T17:38:13;28.50;60.10
45491;DHT22;31237;45.586;13.782;2022-08-25T17:40:40;28.40;60.30
45491;DHT22;31237;45.586;13.782;2022-08-25T17:43:07;28.30;60.50
45491;DHT22;31237;45.586;13.782;2022-08-25T17:45:33;28.20;60.70
45491;DHT22;31237;45.586;13.782;2022-08-25T17:47:59;28.10;60.90